Flight Track Log - Related Links

Times and Time Zones

All times are in EDT time to prevent confusion due to time zone crossing. See the EGF3994 flight status page for this flight to view local times or setup timezone preferences in your user account.

Time Position Orientation Groundspeed Altitude Reporting Facility
EDT Latitude Longitude Course Direction KTS MPH feet Rate Location/Type
Mon 06:49:17 PM 41.9333 -87.9167 90° East 173 199 2,000  Level Chicago TRACON
Mon 06:50:18 PM 41.9167 -87.8667 114° Southeast 215 247 4,400 1,824 Climbing Chicago TRACON
Mon 06:50:59 PM 41.9156 -87.8256 92° East 239 275 5,100 2,039 Climbing Chicago Center
Mon 06:51:00 PM 41.9592 -87.4586 98° East  Level FlightAware Approximate
Mon 06:52:00 PM 41.9462 -87.3123 95° East  Level FlightAware Approximate
Mon 06:52:01 PM 41.9208 -87.7264 86° East 260 299 7,900  Level Chicago Center
Mon 06:53:00 PM 41.9357 -87.1657 95° East  Level FlightAware Approximate
Mon 06:53:03 PM 41.9244 -87.6200 87° East 281 323 10,200  Level Chicago Center
Mon 06:54:00 PM 41.9333 -87.0185 90° East  Level FlightAware Approximate
Mon 06:54:05 PM 41.9300 -87.4786 87° East 314 361 12,400  Level Chicago Center
Mon 06:55:07 PM 41.9342 -87.3539 87° East 332 382 13,900 1,403 Climbing Chicago Center
Mon 06:56:09 PM 41.9206 -87.2167 98° East 364 419 15,300 1,548 Climbing Chicago Center
Mon 06:57:11 PM 41.9064 -87.0739 98° East 383 441 17,100 1,728 Climbing Chicago Center
Mon 06:58:14 PM 41.8931 -86.9358 97° East 377 434 18,900 1,935 Climbing Chicago Center
Mon 06:59:15 PM 41.8761 -86.7664 98° East 382 440 21,100 1,935 Climbing Chicago Center
Mon 07:00:18 PM 41.8639 -86.6361 97° East 389 448 22,900 912 Climbing Chicago Center
Mon 07:01:20 PM 41.8181 -86.4989 114° Southeast 420 483 23,000 48 Climbing Chicago Center
Mon 07:02:22 PM 41.7369 -86.3686 130° Southeast 452 520 23,000  Level Chicago Center
Mon 07:03:24 PM 41.6358 -86.2031 129° Southeast 478 550 23,000  Level Chicago Center
Mon 07:04:26 PM 41.5503 -86.0622 129° Southeast 488 562 23,000  Level Chicago Center
Mon 07:05:28 PM 41.4647 -85.9200 129° Southeast 495 570 23,000  Level Chicago Center
Mon 07:06:30 PM 41.3817 -85.7839 129° Southeast 482 555 23,000  Level Chicago Center
Mon 07:07:32 PM 41.2844 -85.6239 129° Southeast 471 542 23,000  Level Chicago Center
Mon 07:08:34 PM 41.2031 -85.4908 129° Southeast 471 542 23,000 -48 Level Chicago Center
Mon 07:09:36 PM 41.1225 -85.3639 130° Southeast 457 526 22,900 -1,065 Descending Chicago Center
Mon 07:10:38 PM 41.0400 -85.2278 129° Southeast 472 543 20,800 -2,226 Descending Chicago Center
Mon 07:11:40 PM 40.9633 -85.1022 129° Southeast 456 525 18,300 -2,371 Descending Chicago Center
Mon 07:12:42 PM 40.8917 -84.9889 130° Southeast 416 479 15,900 -1,597 Descending Chicago Center
Mon 07:13:44 PM 40.8078 -84.8561 130° Southeast 399 459 15,000 -439 Descending Chicago Center
Mon 07:14:45 PM 40.7411 -84.7497 130° Southeast 383 441 15,000  Level Chicago Center
Mon 07:15:47 PM 40.6686 -84.6378 130° Southeast 396 456 15,000 -353 Level Chicago Center
Mon 07:16:27 PM 40.6231 -84.5675 130° Southeast 420 483 14,400 -1,059 Descending Indianapolis Center
Mon 07:17:29 PM 40.5350 -84.4286 130° Southeast 420 483 13,200 -1,043 Descending Indianapolis Center
Mon 07:17:59 PM 40.5003 -84.3747 130° Southeast 413 475 12,800 -984 Descending Indianapolis Center
Mon 07:18:30 PM 40.4533 -84.3419 152° Southeast 390 449 12,200 -1,075 Descending Indianapolis Center
Mon 07:19:06 PM 40.3886 -84.3294 172° South 363 418 11,600 -968 Descending Indianapolis Center
Mon 07:19:32 PM 40.3494 -84.3217 171° South 374 430 11,200 -955 Descending Indianapolis Center
Mon 07:20:34 PM 40.2564 -84.3128 176° South 342 394 10,200 -940 Descending Indianapolis Center
Mon 07:20:55 PM 40.2261 -84.3156 184° South 289 333 9,900 -1,452 Descending Indianapolis Center
Mon 07:21:36 PM 40.1778 -84.3186 183° South 286 329 8,700 -1,864 Descending Indianapolis Center
Mon 07:22:38 PM 40.0978 -84.3217 182° South 284 327 6,700 -2,100 Descending Indianapolis Center
Mon 07:22:56 PM 40.0642 -84.3211 179° South 278 320 5,900 -2,060 Descending Indianapolis Center
Mon 07:23:45 PM 40.0075 -84.3242 182° South 270 311 4,400 -1,837 Descending Indianapolis Center

Login

Don't have an account? Register now (free) for customized features, flight alerts, and more!